Time;durP1;ratioP1;P1;durP2;ratioP2;P2;SDS_P1;SDS_P2;PMS_P1;PMS_P2;Temp;Humidity;BMP_temperature;BMP_pressure;BME280_temperature;BME280_humidity;BME280_pressure;Samples;Min_cycle;Max_cycle;Signal;HPM_P1;HPM_P2
2021/10/11 00:01:31;;;;;;;29.83;21.70;;;10.40;99.90;;;;;;5071534;28;20182;-66
2021/10/11 00:03:57;;;;;;;25.13;19.67;;;10.40;99.90;;;;;;5073693;28;20173;-65
2021/10/11 00:06:23;;;;;;;28.07;19.10;;;10.30;99.90;;;;;;5055931;28;20175;-64
2021/10/11 00:08:48;;;;;;;21.03;17.50;;;10.20;99.90;;;;;;5053443;28;20222;-64
2021/10/11 00:11:14;;;;;;;33.00;20.93;;;10.10;99.90;;;;;;5064678;28;20643;-64
2021/10/11 00:13:39;;;;;;;26.60;19.17;;;10.10;99.90;;;;;;5053989;28;20256;-63
2021/10/11 00:16:05;;;;;;;35.63;20.83;;;10.00;99.90;;;;;;5053373;28;20174;-64
2021/10/11 00:18:30;;;;;;;26.07;20.07;;;9.90;99.90;;;;;;5054500;28;20203;-64
2021/10/11 00:20:56;;;;;;;27.63;19.90;;;9.90;99.90;;;;;;5053033;28;20182;-64
2021/10/11 00:23:22;;;;;;;25.60;18.07;;;9.80;99.90;;;;;;5061779;28;20182;-64
2021/10/11 00:25:48;;;;;;;26.57;18.60;;;9.80;99.90;;;;;;5073178;28;20170;-64
2021/10/11 00:28:13;;;;;;;24.37;18.60;;;9.70;99.90;;;;;;5064127;28;20264;-65
2021/10/11 00:30:39;;;;;;;23.00;18.40;;;9.70;99.90;;;;;;5052695;28;20217;-63
2021/10/11 00:33:05;;;;;;;26.07;19.97;;;9.60;99.90;;;;;;5069200;28;20190;-63
2021/10/11 00:35:32;;;;;;;24.07;17.57;;;9.60;99.90;;;;;;5073041;28;20596;-64
2021/10/11 00:37:58;;;;;;;26.53;18.77;;;9.60;99.90;;;;;;5056180;28;20210;-65
2021/10/11 00:40:24;;;;;;;21.43;17.23;;;9.60;99.90;;;;;;5052783;28;20221;-66
2021/10/11 00:42:49;;;;;;;18.87;16.70;;;9.50;99.90;;;;;;5065635;28;20210;-65
2021/10/11 00:45:15;;;;;;;23.73;17.20;;;9.50;99.90;;;;;;5072803;28;20197;-66
2021/10/11 00:47:41;;;;;;;21.83;16.87;;;9.40;99.90;;;;;;5061347;28;20637;-66
2021/10/11 00:50:07;;;;;;;25.13;19.40;;;9.40;99.90;;;;;;5052534;28;20204;-63
2021/10/11 00:52:33;;;;;;;23.87;17.67;;;9.40;99.90;;;;;;5061855;28;20182;-64
2021/10/11 00:54:59;;;;;;;22.03;16.20;;;9.30;99.90;;;;;;5072644;28;20256;-65
2021/10/11 00:57:25;;;;;;;22.93;17.23;;;9.40;99.90;;;;;;5057344;28;20226;-65
2021/10/11 00:59:50;;;;;;;23.47;16.97;;;9.50;99.90;;;;;;5052249;28;20624;-64
2021/10/11 01:02:16;;;;;;;22.97;18.30;;;9.60;99.90;;;;;;5056191;28;20262;-66
2021/10/11 01:04:42;;;;;;;26.47;19.37;;;9.70;99.90;;;;;;5053915;28;20253;-66
2021/10/11 01:07:08;;;;;;;26.27;16.47;;;9.80;99.90;;;;;;5070643;28;20193;-63
2021/10/11 01:09:33;;;;;;;24.97;17.97;;;10.00;99.90;;;;;;5071719;28;20189;-64
2021/10/11 01:12:00;;;;;;;22.77;17.13;;;10.10;99.90;;;;;;5052545;28;20205;-63
2021/10/11 01:14:26;;;;;;;19.50;16.57;;;10.20;99.90;;;;;;5052040;28;20179;-63
2021/10/11 01:16:51;;;;;;;25.63;19.63;;;10.30;99.90;;;;;;5069941;28;20214;-64
2021/10/11 01:19:17;;;;;;;25.50;17.63;;;10.40;99.90;;;;;;5071870;28;20170;-64
2021/10/11 01:21:43;;;;;;;28.57;20.70;;;10.50;99.90;;;;;;5055516;28;20325;-63
2021/10/11 01:24:09;;;;;;;23.47;19.10;;;10.60;99.90;;;;;;5052126;28;20173;-64
2021/10/11 01:26:40;;;;;;;27.00;19.97;;;10.70;99.90;;;;;;5066421;28;20761;-64
2021/10/11 01:29:07;;;;;;;23.90;19.43;;;10.80;99.90;;;;;;5067135;28;20245;-63
2021/10/11 01:31:33;;;;;;;26.67;19.03;;;10.80;99.90;;;;;;5051998;28;20214;-64
2021/10/11 01:34:00;;;;;;;29.77;20.57;;;10.80;99.90;;;;;;5052953;28;20190;-65
2021/10/11 01:36:26;;;;;;;24.47;17.83;;;10.80;99.90;;;;;;5048845;28;20524;-66
2021/10/11 01:38:57;;;;;;;25.97;19.03;;;10.80;99.90;;;;;;5052561;28;20277;-64
2021/10/11 01:41:23;;;;;;;27.43;19.13;;;10.90;99.90;;;;;;5071833;28;20170;-66
2021/10/11 01:43:49;;;;;;;29.97;22.37;;;10.90;99.90;;;;;;5071538;28;20708;-66
2021/10/11 01:46:15;;;;;;;34.73;24.50;;;10.90;99.90;;;;;;5051807;28;20681;-64
2021/10/11 01:48:42;;;;;;;32.80;21.57;;;10.90;99.90;;;;;;5051708;28;20194;-66
2021/10/11 01:51:08;;;;;;;37.53;23.20;;;11.00;99.90;;;;;;5053916;28;20262;-65
2021/10/11 01:53:34;;;;;;;37.20;25.10;;;11.00;99.90;;;;;;5051685;28;20644;-66
2021/10/11 01:56:00;;;;;;;33.70;24.57;;;11.00;99.90;;;;;;5068417;28;20193;-65
2021/10/11 01:58:25;;;;;;;30.07;22.20;;;11.00;99.90;;;;;;5065260;28;20210;-65
2021/10/11 02:00:51;;;;;;;34.93;23.17;;;11.10;99.90;;;;;;5051260;28;20750;-66
2021/10/11 02:03:17;;;;;;;33.17;23.93;;;11.10;99.90;;;;;;5055646;28;20190;-66
2021/10/11 02:05:43;;;;;;;34.50;22.17;;;11.10;99.90;;;;;;5071654;28;20170;-65
2021/10/11 02:08:08;;;;;;;38.20;24.83;;;11.10;99.90;;;;;;5069126;28;20232;-66
2021/10/11 02:10:34;;;;;;;35.50;24.40;;;11.20;99.90;;;;;;5051128;28;20650;-65
2021/10/11 02:13:00;;;;;;;31.63;22.00;;;11.30;99.90;;;;;;5051673;28;20179;-66
2021/10/11 02:15:26;;;;;;;30.40;22.03;;;11.30;99.90;;;;;;5071580;28;20182;-66
2021/10/11 02:17:52;;;;;;;30.33;23.37;;;11.30;99.90;;;;;;5071306;28;20209;-65
2021/10/11 02:20:18;;;;;;;27.20;21.70;;;11.30;99.90;;;;;;5052118;28;20174;-64
2021/10/11 02:22:44;;;;;;;31.83;20.97;;;11.30;99.90;;;;;;5051382;28;20171;-65
2021/10/11 02:25:10;;;;;;;31.13;21.17;;;11.40;99.90;;;;;;5069390;28;20186;-66
2021/10/11 02:27:37;;;;;;;26.33;21.47;;;11.30;99.90;;;;;;5068748;28;20205;-66
2021/10/11 02:30:04;;;;;;;30.47;21.37;;;11.40;99.90;;;;;;5055250;28;20235;-66
2021/10/11 02:32:30;;;;;;;29.33;21.50;;;11.40;99.90;;;;;;5056739;28;20210;-65
2021/10/11 02:34:55;;;;;;;28.83;21.57;;;11.40;99.90;;;;;;5071503;28;20579;-65
2021/10/11 02:37:21;;;;;;;35.80;23.00;;;11.50;99.90;;;;;;5071773;28;20268;-65
2021/10/11 02:39:47;;;;;;;32.00;22.43;;;11.40;99.90;;;;;;5061014;28;20217;-64
2021/10/11 02:42:12;;;;;;;37.93;22.07;;;11.50;99.90;;;;;;5073728;28;20182;-65
2021/10/11 02:44:38;;;;;;;31.70;21.27;;;11.50;99.90;;;;;;5055139;28;20171;-66
2021/10/11 02:47:04;;;;;;;31.20;23.60;;;11.40;99.90;;;;;;5054959;28;20175;-66
2021/10/11 02:49:29;;;;;;;33.47;22.20;;;11.50;99.90;;;;;;5073876;28;20182;-66
2021/10/11 02:51:55;;;;;;;31.20;21.87;;;11.50;99.90;;;;;;5074953;28;20547;-65
2021/10/11 02:54:20;;;;;;;31.20;22.80;;;11.50;99.90;;;;;;5062126;28;20659;-66
2021/10/11 02:56:46;;;;;;;35.40;21.83;;;11.60;99.90;;;;;;5067824;28;20217;-65
2021/10/11 02:59:12;;;;;;;31.33;21.80;;;11.60;99.90;;;;;;5054466;28;20218;-65
2021/10/11 03:01:38;;;;;;;30.77;22.93;;;11.60;99.90;;;;;;5059495;28;20682;-65
2021/10/11 03:04:03;;;;;;;30.43;22.47;;;11.60;99.90;;;;;;5074910;28;20643;-65
2021/10/11 03:06:29;;;;;;;28.00;20.97;;;11.60;99.90;;;;;;5055812;28;20183;-66
2021/10/11 03:08:55;;;;;;;28.23;20.40;;;11.60;99.90;;;;;;5054506;28;20273;-65
2021/10/11 03:11:20;;;;;;;27.57;20.47;;;11.60;99.90;;;;;;5071117;28;20228;-66
2021/10/11 03:13:46;;;;;;;29.23;20.57;;;11.60;99.90;;;;;;5066620;28;20194;-65
2021/10/11 03:16:12;;;;;;;21.80;18.27;;;11.60;99.90;;;;;;5054500;28;20265;-66
2021/10/11 03:18:38;;;;;;;26.17;20.73;;;11.40;99.90;;;;;;5063573;28;20472;-65
2021/10/11 03:21:04;;;;;;;29.90;19.67;;;11.40;99.90;;;;;;5074212;28;20621;-66
2021/10/11 03:23:29;;;;;;;28.07;20.37;;;11.40;99.90;;;;;;5066602;28;20254;-66
2021/10/11 03:25:55;;;;;;;28.20;20.93;;;11.30;99.90;;;;;;5065528;28;20264;-65
2021/10/11 03:28:21;;;;;;;31.07;20.93;;;11.30;99.90;;;;;;5071287;28;20285;-65
2021/10/11 03:30:47;;;;;;;25.83;20.00;;;11.40;99.90;;;;;;5057287;28;20240;-64
2021/10/11 03:33:12;;;;;;;29.63;19.80;;;11.40;99.90;;;;;;5066818;28;20182;-65
2021/10/11 03:35:38;;;;;;;26.83;18.70;;;11.40;99.90;;;;;;5073877;28;20180;-66
2021/10/11 03:38:03;;;;;;;26.67;19.37;;;11.40;99.90;;;;;;5065571;28;20774;-66
2021/10/11 03:40:29;;;;;;;25.63;18.00;;;11.40;99.90;;;;;;5068458;28;20182;-66
2021/10/11 03:42:55;;;;;;;23.00;17.47;;;11.50;99.90;;;;;;5074079;28;20185;-66
2021/10/11 03:45:21;;;;;;;20.27;16.70;;;11.50;99.90;;;;;;5065862;28;20183;-66
2021/10/11 03:47:47;;;;;;;20.33;17.17;;;11.50;99.90;;;;;;5053991;28;20198;-65
2021/10/11 03:50:12;;;;;;;24.53;16.70;;;11.60;99.90;;;;;;5054779;28;20179;-66
2021/10/11 03:52:38;;;;;;;27.13;16.87;;;11.60;99.90;;;;;;5053933;28;20659;-66
2021/10/11 03:55:04;;;;;;;19.60;15.73;;;11.70;99.90;;;;;;5057729;28;20261;-66
2021/10/11 03:57:30;;;;;;;23.10;18.00;;;11.80;99.90;;;;;;5071200;22;20222;-61
2021/10/11 03:59:55;;;;;;;22.47;17.47;;;11.80;99.90;;;;;;5053162;28;20214;-63
2021/10/11 04:02:22;;;;;;;19.80;15.83;;;11.80;99.90;;;;;;5053034;28;20729;-63
2021/10/11 04:04:48;;;;;;;20.63;17.63;;;11.80;99.90;;;;;;5042765;28;20186;-64
2021/10/11 04:07:16;;;;;;;24.90;16.03;;;11.80;99.90;;;;;;5053370;28;20175;-64
2021/10/11 04:09:44;;;;;;;22.13;17.60;;;11.70;99.90;;;;;;5033751;28;20179;-63
2021/10/11 04:12:18;;;;;;;24.77;18.77;;;11.70;99.90;;;;;;5033563;28;20183;-64
2021/10/11 04:14:44;;;;;;;22.63;16.17;;;11.70;99.90;;;;;;5037394;28;20195;-63
2021/10/11 04:17:10;;;;;;;24.03;16.30;;;11.70;99.90;;;;;;5033173;28;20305;-63
2021/10/11 04:19:36;;;;;;;31.10;18.13;;;11.80;99.90;;;;;;5049765;28;20194;-63
2021/10/11 04:22:02;;;;;;;23.13;18.30;;;11.80;99.90;;;;;;5051569;28;20186;-64
2021/10/11 04:24:27;;;;;;;22.97;18.60;;;11.80;99.90;;;;;;5053230;28;20179;-63
2021/10/11 04:26:53;;;;;;;27.30;18.93;;;11.80;99.90;;;;;;5038949;28;20190;-64
2021/10/11 04:29:18;;;;;;;23.53;19.30;;;11.70;99.90;;;;;;5050455;28;20285;-64
2021/10/11 04:31:44;;;;;;;26.97;20.30;;;11.70;99.90;;;;;;5040698;28;20667;-64
2021/10/11 04:34:10;;;;;;;24.50;20.00;;;11.60;99.90;;;;;;5033267;28;20187;-64
2021/10/11 04:36:35;;;;;;;24.17;18.87;;;11.60;99.90;;;;;;5041612;28;20216;-64
2021/10/11 04:39:01;;;;;;;25.77;18.77;;;11.60;99.90;;;;;;5052713;28;20592;-64
2021/10/11 04:41:27;;;;;;;28.93;19.13;;;11.60;99.90;;;;;;5043925;28;20544;-64
2021/10/11 04:43:53;;;;;;;23.33;19.20;;;11.60;99.90;;;;;;5033066;28;20206;-64
2021/10/11 04:46:19;;;;;;;21.33;18.93;;;11.70;99.90;;;;;;5039894;28;20217;-64
2021/10/11 04:48:44;;;;;;;24.00;19.20;;;11.80;99.90;;;;;;5052081;28;20203;-64
2021/10/11 04:51:10;;;;;;;30.07;18.97;;;11.90;99.90;;;;;;5035944;28;20191;-64
2021/10/11 04:53:35;;;;;;;29.03;19.40;;;11.90;99.90;;;;;;5032870;28;20246;-64
2021/10/11 04:56:01;;;;;;;25.77;17.93;;;12.00;99.90;;;;;;5046986;28;20174;-64
2021/10/11 04:58:27;;;;;;;25.67;18.03;;;12.00;99.90;;;;;;5061753;28;20284;-64
2021/10/11 05:00:52;;;;;;;28.07;18.93;;;12.00;99.90;;;;;;5070486;28;20239;-64
2021/10/11 05:03:18;;;;;;;28.27;16.83;;;12.00;99.90;;;;;;5070302;28;20178;-64
2021/10/11 05:05:43;;;;;;;26.43;17.43;;;12.00;99.90;;;;;;5055780;28;20253;-64
2021/10/11 05:08:09;;;;;;;24.27;17.27;;;12.00;99.90;;;;;;5071982;28;20206;-64
2021/10/11 05:10:35;;;;;;;24.80;17.57;;;12.00;99.90;;;;;;5052149;28;20194;-64
2021/10/11 05:13:00;;;;;;;26.63;17.50;;;12.00;99.90;;;;;;5052283;28;20540;-64
2021/10/11 05:15:26;;;;;;;24.63;17.70;;;12.10;99.90;;;;;;5070617;28;20193;-65
2021/10/11 05:17:52;;;;;;;22.23;17.30;;;12.10;99.90;;;;;;5072054;28;20210;-64
2021/10/11 05:20:17;;;;;;;22.63;16.50;;;12.10;99.90;;;;;;5056036;28;20189;-64
2021/10/11 05:22:43;;;;;;;20.10;15.17;;;12.10;99.90;;;;;;5060960;28;20527;-64
2021/10/11 05:25:10;;;;;;;30.60;17.03;;;12.00;99.90;;;;;;5072294;28;20186;-64
2021/10/11 05:27:36;;;;;;;20.40;14.37;;;12.00;99.90;;;;;;5064276;28;20214;-63
2021/10/11 05:30:03;;;;;;;18.53;14.03;;;12.00;99.90;;;;;;5051820;28;20262;-63
2021/10/11 05:32:29;;;;;;;18.00;13.67;;;12.00;99.90;;;;;;5057708;28;20630;-63
2021/10/11 05:34:58;;;;;;;17.57;13.90;;;12.00;99.90;;;;;;5071846;28;20184;-63
2021/10/11 05:37:26;;;;;;;14.27;11.73;;;11.90;99.90;;;;;;5064344;28;20290;-63
2021/10/11 05:39:52;;;;;;;16.13;13.10;;;11.90;99.90;;;;;;5051600;28;20171;-63
2021/10/11 05:42:18;;;;;;;13.73;12.43;;;11.90;99.90;;;;;;5054462;28;20266;-63
2021/10/11 05:44:44;;;;;;;13.73;11.67;;;11.90;99.90;;;;;;5051915;28;20282;-64
2021/10/11 05:47:10;;;;;;;14.07;11.60;;;11.90;99.90;;;;;;5058065;28;20194;-63
2021/10/11 05:49:37;;;;;;;18.07;12.73;;;12.00;99.90;;;;;;5071359;28;20182;-63
2021/10/11 05:52:03;;;;;;;14.07;11.17;;;12.00;99.90;;;;;;5057424;28;20190;-63
2021/10/11 05:54:28;;;;;;;13.90;12.37;;;12.00;99.90;;;;;;5051714;28;20644;-63
2021/10/11 05:56:57;;;;;;;17.17;11.80;;;12.00;99.90;;;;;;5063928;28;20201;-64
2021/10/11 05:59:23;;;;;;;13.60;11.60;;;12.00;99.90;;;;;;5071227;28;20213;-63
2021/10/11 06:01:49;;;;;;;11.67;10.37;;;12.00;99.90;;;;;;5060180;28;20187;-64
2021/10/11 06:04:15;;;;;;;12.70;11.40;;;12.00;99.90;;;;;;5051845;28;20552;-64
2021/10/11 06:06:40;;;;;;;12.67;10.80;;;12.00;99.90;;;;;;5060785;28;20532;-64
2021/10/11 06:09:07;;;;;;;12.80;11.43;;;12.00;99.90;;;;;;5070365;28;20213;-64
2021/10/11 06:11:33;;;;;;;11.77;10.67;;;12.10;99.90;;;;;;5065048;28;20194;-64
2021/10/11 06:13:59;;;;;;;14.13;11.03;;;12.10;99.90;;;;;;5059535;28;20183;-64
2021/10/11 06:16:25;;;;;;;13.27;11.60;;;12.10;99.90;;;;;;5051359;28;20253;-64
2021/10/11 06:18:50;;;;;;;11.93;10.27;;;12.20;99.90;;;;;;5069695;28;20600;-64
2021/10/11 06:21:16;;;;;;;11.80;10.37;;;12.20;99.90;;;;;;5071190;28;20202;-64
2021/10/11 06:23:42;;;;;;;10.93;9.83;;;12.20;99.90;;;;;;5071381;28;20270;-64
2021/10/11 06:26:07;;;;;;;12.87;11.57;;;12.20;99.90;;;;;;5069537;28;20178;-63
2021/10/11 06:28:33;;;;;;;10.80;9.73;;;12.20;99.90;;;;;;5051323;28;20194;-63
2021/10/11 06:30:58;;;;;;;13.63;11.53;;;12.20;99.90;;;;;;5050992;28;20242;-64
2021/10/11 06:33:25;;;;;;;14.37;10.03;;;12.20;99.90;;;;;;5062075;28;20194;-63
2021/10/11 06:35:51;;;;;;;11.70;10.60;;;12.20;99.90;;;;;;5033130;28;20202;-64
2021/10/11 06:38:17;;;;;;;10.60;9.60;;;12.20;99.90;;;;;;5068876;28;20616;-64
2021/10/11 06:40:46;;;;;;;12.23;9.63;;;12.30;99.90;;;;;;5070907;28;20171;-64
2021/10/11 06:43:12;;;;;;;12.27;9.43;;;12.30;99.90;;;;;;5053931;28;20168;-64
2021/10/11 06:45:38;;;;;;;12.67;11.03;;;12.30;99.90;;;;;;5050964;28;20667;-63
2021/10/11 06:48:04;;;;;;;10.77;9.67;;;12.30;99.90;;;;;;5066275;28;20199;-63
2021/10/11 06:50:30;;;;;;;13.93;10.50;;;12.30;99.90;;;;;;5051850;28;20193;-63
2021/10/11 06:52:55;;;;;;;10.67;9.67;;;12.30;99.90;;;;;;5064604;28;20174;-63
2021/10/11 06:55:21;;;;;;;11.80;10.60;;;12.40;99.90;;;;;;5071045;28;20231;-65
2021/10/11 06:57:46;;;;;;;14.67;10.13;;;12.40;99.90;;;;;;5058604;28;20211;-64
2021/10/11 07:00:13;;;;;;;12.47;11.23;;;12.40;99.90;;;;;;5050837;28;20644;-63
2021/10/11 07:02:38;;;;;;;11.77;10.53;;;12.40;99.90;;;;;;5061737;28;20697;-64
2021/10/11 07:05:08;;;;;;;10.93;10.00;;;12.40;99.90;;;;;;5065863;28;20179;-64
2021/10/11 07:07:34;;;;;;;11.33;10.33;;;12.40;99.90;;;;;;5050831;28;20198;-64
2021/10/11 07:10:01;;;;;;;12.27;10.00;;;12.40;99.90;;;;;;5057355;28;20186;-64
2021/10/11 07:12:26;;;;;;;11.50;9.73;;;12.50;99.90;;;;;;5073917;28;20166;-64
2021/10/11 07:14:52;;;;;;;10.50;9.63;;;12.50;99.90;;;;;;5069047;28;20240;-63
2021/10/11 07:17:17;;;;;;;10.23;9.30;;;12.50;99.90;;;;;;5054324;28;20202;-64
2021/10/11 07:19:46;;;;;;;9.43;8.57;;;12.50;99.90;;;;;;5057172;28;20241;-64
2021/10/11 07:22:16;;;;;;;9.63;8.73;;;12.50;99.90;;;;;;5074436;28;20169;-63
2021/10/11 07:24:43;;;;;;;11.20;8.53;;;12.50;99.90;;;;;;5071665;28;20174;-61
2021/10/11 07:27:09;;;;;;;9.50;8.43;;;12.50;99.90;;;;;;5056649;28;20179;-64
2021/10/11 07:29:35;;;;;;;9.23;8.50;;;12.60;99.90;;;;;;5062470;28;20194;-64
2021/10/11 07:32:02;;;;;;;9.10;8.20;;;12.60;99.90;;;;;;5074230;28;20166;-63
2021/10/11 07:34:28;;;;;;;9.03;8.13;;;12.70;99.90;;;;;;5074300;28;20216;-64
2021/10/11 07:36:53;;;;;;;8.23;7.50;;;12.90;99.90;;;;;;5054282;28;20676;-63
2021/10/11 07:39:19;;;;;;;8.57;7.77;;;13.10;99.90;;;;;;5053936;28;20621;-64
2021/10/11 07:41:44;;;;;;;10.43;8.40;;;13.20;99.90;;;;;;5070991;28;20528;-64
2021/10/11 07:44:10;;;;;;;8.40;7.90;;;13.40;99.90;;;;;;5074264;28;20756;-64
2021/10/11 07:46:37;;;;;;;10.73;9.63;;;13.70;99.90;;;;;;5061891;28;20170;-63
2021/10/11 07:49:03;;;;;;;14.10;8.80;;;14.00;99.90;;;;;;5073543;28;20226;-63
2021/10/11 07:51:29;;;;;;;8.73;7.93;;;14.30;99.90;;;;;;5073822;28;20539;-63
2021/10/11 07:53:54;;;;;;;8.63;7.87;;;14.50;99.90;;;;;;5072299;28;20182;-63
2021/10/11 07:56:20;;;;;;;11.23;7.67;;;14.60;99.90;;;;;;5073929;28;20170;-63
2021/10/11 07:58:46;;;;;;;8.17;7.30;;;14.60;99.90;;;;;;5062065;28;20246;-63
2021/10/11 08:01:11;;;;;;;7.73;7.13;;;14.70;99.90;;;;;;5053300;28;20225;-63
2021/10/11 08:03:37;;;;;;;8.30;7.37;;;14.70;99.90;;;;;;5062679;28;20221;-63
2021/10/11 08:06:07;;;;;;;8.50;7.80;;;15.00;99.90;;;;;;5073759;28;20166;-63
2021/10/11 08:08:33;;;;;;;7.20;6.50;;;15.20;99.90;;;;;;5065159;28;20372;-63
2021/10/11 08:11:00;;;;;;;6.87;6.40;;;15.30;99.90;;;;;;5053228;28;20209;-63
2021/10/11 08:13:25;;;;;;;6.57;6.10;;;15.30;99.90;;;;;;5059706;28;20243;-63
2021/10/11 08:15:51;;;;;;;6.63;6.23;;;15.30;99.90;;;;;;5073592;28;20203;-63
2021/10/11 08:18:17;;;;;;;6.50;6.10;;;15.30;99.90;;;;;;5068300;28;20312;-63
2021/10/11 08:20:43;;;;;;;6.87;6.47;;;15.30;99.90;;;;;;5054104;28;20216;-63
2021/10/11 08:23:10;;;;;;;6.50;5.90;;;15.30;99.90;;;;;;5052317;28;20171;-63
2021/10/11 08:25:36;;;;;;;6.13;5.73;;;15.50;99.90;;;;;;5053110;28;20686;-63
2021/10/11 08:28:03;;;;;;;6.33;5.93;;;15.60;99.90;;;;;;5055263;28;20792;-63
2021/10/11 08:30:28;;;;;;;6.63;6.10;;;15.70;99.90;;;;;;5064735;28;20175;-63
2021/10/11 08:32:54;;;;;;;5.77;5.33;;;15.90;99.90;;;;;;5069262;28;20734;-63
2021/10/11 08:35:20;;;;;;;5.53;5.27;;;16.10;99.90;;;;;;5062001;28;20183;-63
2021/10/11 08:37:45;;;;;;;6.17;5.57;;;16.40;99.90;;;;;;5052738;28;20718;-63
2021/10/11 08:40:11;;;;;;;5.97;5.40;;;16.80;99.90;;;;;;5061420;28;20635;-64
2021/10/11 08:42:38;;;;;;;5.00;4.70;;;17.20;99.90;;;;;;5072849;28;20170;-63
2021/10/11 08:45:06;;;;;;;5.20;4.70;;;17.40;99.90;;;;;;5067984;28;20648;-62
2021/10/11 08:47:32;;;;;;;4.90;4.50;;;17.70;99.90;;;;;;5065745;28;20198;-64
2021/10/11 08:49:57;;;;;;;8.13;4.73;;;17.80;99.90;;;;;;5072524;28;20182;-63
2021/10/11 08:52:23;;;;;;;4.43;4.20;;;17.90;99.90;;;;;;5052809;28;20213;-63
2021/10/11 08:54:51;;;;;;;5.00;4.70;;;18.20;99.90;;;;;;5052623;28;20252;-62
2021/10/11 08:57:27;;;;;;;5.50;4.90;;;18.20;99.90;;;;;;5052364;28;20672;-63
2021/10/11 08:59:54;;;;;;;5.27;4.57;;;18.30;99.90;;;;;;5052292;28;20181;-64
2021/10/11 09:02:24;;;;;;;5.10;4.73;;;18.10;99.90;;;;;;5052467;28;20163;-63
2021/10/11 09:04:53;;;;;;;4.47;4.17;;;18.00;99.90;;;;;;5057094;28;20186;-63
2021/10/11 09:07:24;;;;;;;5.10;4.43;;;17.80;99.90;;;;;;5053482;28;20225;-63
2021/10/11 09:09:51;;;;;;;5.43;5.13;;;17.60;99.90;;;;;;5052083;28;20277;-63
2021/10/11 09:12:31;;;;;;;5.07;4.87;;;17.40;99.90;;;;;;5061641;28;20184;-63
2021/10/11 09:15:09;;;;;;;4.80;4.50;;;17.40;99.90;;;;;;5065748;28;20182;-63
2021/10/11 09:17:41;;;;;;;5.67;5.10;;;17.30;99.90;;;;;;5051988;28;20210;-63
2021/10/11 09:20:15;;;;;;;4.90;4.60;;;17.20;99.90;;;;;;5059079;28;20194;-63
2021/10/11 09:22:43;;;;;;;4.97;4.67;;;17.00;99.90;;;;;;5072191;28;20166;-63
2021/10/11 09:25:09;;;;;;;5.10;4.70;;;16.60;99.90;;;;;;5065079;28;20175;-63
2021/10/11 09:27:53;;;;;;;5.23;4.93;;;16.40;99.90;;;;;;5051786;28;20209;-62
2021/10/11 09:30:23;;;;;;;5.43;5.03;;;16.30;99.90;;;;;;5052913;28;20183;-63
2021/10/11 09:32:49;;;;;;;5.97;5.10;;;16.40;99.90;;;;;;5051926;28;20548;-63
2021/10/11 09:35:20;;;;;;;4.40;4.20;;;16.60;99.90;;;;;;5058319;28;20253;-63
2021/10/11 09:37:56;;;;;;;4.77;4.47;;;16.60;99.90;;;;;;5071725;28;20216;-63
2021/10/11 09:40:25;;;;;;;5.10;4.70;;;16.70;99.90;;;;;;5069937;28;20161;-63
2021/10/11 09:42:51;;;;;;;6.17;5.10;;;16.90;99.90;;;;;;5070987;28;20186;-63
2021/10/11 09:45:23;;;;;;;5.43;4.93;;;17.00;99.90;;;;;;5065628;28;20170;-63
2021/10/11 09:47:50;;;;;;;4.80;4.53;;;17.00;99.90;;;;;;5051643;28;20233;-63
2021/10/11 09:50:17;;;;;;;4.60;4.40;;;17.40;99.90;;;;;;5056361;28;20170;-63
2021/10/11 09:52:44;;;;;;;4.50;4.20;;;17.50;99.90;;;;;;5071699;28;20177;-63
2021/10/11 09:55:12;;;;;;;4.47;4.27;;;17.60;99.90;;;;;;5067775;28;20721;-62
2021/10/11 09:57:37;;;;;;;4.80;4.40;;;17.70;99.90;;;;;;5060961;22;20248;-62
2021/10/11 10:00:11;;;;;;;4.20;4.00;;;17.80;99.90;;;;;;5029849;28;20207;-62
2021/10/11 10:02:39;;;;;;;4.63;4.43;;;17.70;99.90;;;;;;5031555;28;20171;-62
2021/10/11 10:05:10;;;;;;;4.73;4.30;;;17.50;99.90;;;;;;5030941;28;20241;-63
2021/10/11 10:07:39;;;;;;;4.30;4.10;;;17.80;99.90;;;;;;5031279;28;20202;-63
2021/10/11 10:10:06;;;;;;;4.17;3.97;;;17.90;99.90;;;;;;5026716;28;20270;-64
2021/10/11 10:12:33;;;;;;;4.53;4.33;;;17.80;99.90;;;;;;5011761;28;20210;-63
2021/10/11 10:14:59;;;;;;;4.50;4.30;;;17.60;99.90;;;;;;5011829;28;20184;-63
2021/10/11 10:17:30;;;;;;;4.63;4.30;;;17.20;99.90;;;;;;5011906;28;20264;-63
2021/10/11 10:20:10;;;;;;;5.90;5.50;;;16.80;99.90;;;;;;5011119;28;20262;-62
2021/10/11 10:22:49;;;;;;;4.80;4.40;;;16.70;99.90;;;;;;5011724;28;20168;-62
2021/10/11 10:25:15;;;;;;;5.10;4.80;;;16.60;99.90;;;;;;5011622;28;20267;-62
2021/10/11 10:27:41;;;;;;;4.73;4.33;;;16.60;99.90;;;;;;5011438;28;20203;-63
2021/10/11 10:30:14;;;;;;;6.03;5.70;;;16.80;99.90;;;;;;5011395;28;20622;-63
2021/10/11 10:32:50;;;;;;;4.60;4.40;;;17.20;99.90;;;;;;5011106;28;20180;-63
2021/10/11 10:35:19;;;;;;;4.50;4.20;;;17.60;99.90;;;;;;5011234;28;20187;-63
2021/10/11 10:37:44;;;;;;;4.43;4.23;;;17.90;99.90;;;;;;5010294;28;20573;-63
2021/10/11 10:40:15;;;;;;;4.70;4.40;;;18.00;99.90;;;;;;5011360;28;20172;-63
2021/10/11 10:42:42;;;;;;;4.43;4.23;;;18.10;99.90;;;;;;5011197;28;20218;-63
2021/10/11 10:45:35;;;;;;;4.90;4.60;;;17.90;99.90;;;;;;5011799;28;20242;-62
2021/10/11 10:48:01;;;;;;;5.10;4.80;;;17.70;99.90;;;;;;5014239;28;20218;-63
2021/10/11 10:50:28;;;;;;;4.50;4.30;;;17.50;99.90;;;;;;5015150;28;20601;-63
2021/10/11 10:53:00;;;;;;;4.90;4.60;;;17.30;99.90;;;;;;5015096;28;20224;-61
2021/10/11 10:55:27;;;;;;;4.90;4.53;;;17.20;99.90;;;;;;5014841;28;20603;-63
2021/10/11 10:57:58;;;;;;;4.90;4.53;;;17.10;99.90;;;;;;5014532;28;20196;-63
2021/10/11 11:00:24;;;;;;;4.50;4.30;;;17.10;99.90;;;;;;5014758;28;20203;-63
2021/10/11 11:02:51;;;;;;;4.70;4.40;;;17.20;99.90;;;;;;5015075;28;20176;-63
2021/10/11 11:05:20;;;;;;;5.17;4.73;;;17.10;99.90;;;;;;5014933;28;20180;-63
2021/10/11 11:07:50;;;;;;;5.13;4.73;;;16.90;99.90;;;;;;5014769;28;20667;-63
2021/10/11 11:10:27;;;;;;;4.50;4.30;;;16.80;99.90;;;;;;5014550;28;20183;-63
2021/10/11 11:12:54;;;;;;;4.67;4.47;;;16.70;99.90;;;;;;5014848;28;20179;-64
2021/10/11 11:15:32;;;;;;;5.27;4.87;;;16.80;99.90;;;;;;5014718;28;20249;-63
2021/10/11 11:18:01;;;;;;;4.90;4.60;;;16.70;99.90;;;;;;5014656;28;20578;-63
2021/10/11 11:20:29;;;;;;;5.40;4.93;;;16.80;99.90;;;;;;5014289;28;20203;-63
2021/10/11 11:23:01;;;;;;;4.37;4.17;;;17.00;99.90;;;;;;5014594;28;20173;-63
2021/10/11 11:25:28;;;;;;;4.87;4.57;;;17.00;99.90;;;;;;5014493;28;20172;-63
2021/10/11 11:27:57;;;;;;;4.43;4.23;;;17.00;99.90;;;;;;5014424;28;20230;-63
2021/10/11 11:30:24;;;;;;;4.87;4.57;;;17.10;99.90;;;;;;5014097;28;20184;-63
2021/10/11 11:32:56;;;;;;;4.60;4.30;;;17.00;99.90;;;;;;5014395;28;20172;-63
2021/10/11 11:35:30;;;;;;;5.07;4.60;;;17.00;99.90;;;;;;5014372;28;20207;-63
2021/10/11 11:38:04;;;;;;;4.67;4.37;;;17.00;99.90;;;;;;5013192;28;20199;-62
2021/10/11 11:40:34;;;;;;;4.30;4.10;;;17.20;99.90;;;;;;5013624;28;20531;-63
2021/10/11 11:43:02;;;;;;;5.17;4.83;;;17.30;99.90;;;;;;5014445;28;20256;-63
2021/10/11 11:45:43;;;;;;;4.30;4.10;;;17.70;99.90;;;;;;5013983;28;20204;-63
2021/10/11 11:48:22;;;;;;;5.53;4.37;;;18.10;99.90;;;;;;5005601;28;20280;-63
2021/10/11 11:50:55;;;;;;;4.00;3.90;;;18.10;99.90;;;;;;4994313;28;20307;-62
2021/10/11 11:53:23;;;;;;;4.57;4.37;;;18.20;99.90;;;;;;5008669;28;20184;-63
2021/10/11 11:55:51;;;;;;;4.37;4.17;;;18.20;99.90;;;;;;5014133;28;20179;-63
2021/10/11 11:58:26;;;;;;;3.97;3.73;;;18.30;99.90;;;;;;5013584;28;20223;-63
2021/10/11 12:00:54;;;;;;;4.50;4.20;;;18.30;99.90;;;;;;5013652;28;20167;-63
2021/10/11 12:03:25;;;;;;;4.40;4.20;;;18.20;99.90;;;;;;5013866;28;20180;-63
2021/10/11 12:05:53;;;;;;;4.50;4.10;;;18.10;99.90;;;;;;5013847;28;20570;-63
2021/10/11 12:08:19;;;;;;;4.40;4.10;;;18.10;99.90;;;;;;5012943;28;20207;-62
2021/10/11 12:11:06;;;;;;;4.40;4.20;;;17.80;99.90;;;;;;5013500;28;20176;-63
2021/10/11 12:13:35;;;;;;;4.43;4.03;;;17.70;99.90;;;;;;5013281;28;20219;-63
2021/10/11 12:16:05;;;;;;;4.57;4.37;;;17.40;99.90;;;;;;5013391;28;20177;-62
2021/10/11 12:18:39;;;;;;;5.40;5.10;;;17.10;99.90;;;;;;5013570;28;20212;-63
2021/10/11 12:21:05;;;;;;;4.57;4.27;;;17.20;99.90;;;;;;5011657;28;20261;-63
2021/10/11 12:23:41;;;;;;;4.77;4.50;;;17.00;99.90;;;;;;5013235;28;20219;-62
2021/10/11 12:26:07;;;;;;;5.03;4.80;;;17.00;99.90;;;;;;5013745;28;20195;-63
2021/10/11 12:28:33;;;;;;;5.50;5.20;;;16.90;99.90;;;;;;5013112;28;20787;-62
2021/10/11 12:31:02;;;;;;;4.90;4.70;;;17.10;99.90;;;;;;5012797;28;20295;-63
2021/10/11 12:33:38;;;;;;;5.63;5.33;;;17.00;99.90;;;;;;5013221;28;20172;-62
2021/10/11 12:36:06;;;;;;;5.03;4.80;;;16.80;99.90;;;;;;5013164;28;20175;-63